createdAt,value
2017-10-21T00:02:11.370Z,69.30
2017-10-21T00:04:38.958Z,68.90
2017-10-21T00:07:07.283Z,69.40
2017-10-21T00:09:35.534Z,69.20
2017-10-21T00:12:03.191Z,68.80
2017-10-21T00:14:30.759Z,69.30
2017-10-21T00:16:58.345Z,69.20
2017-10-21T00:19:25.928Z,68.90
2017-10-21T00:21:53.489Z,69.40
2017-10-21T00:24:21.045Z,69.30
2017-10-21T00:26:48.619Z,69.60
2017-10-21T00:29:16.191Z,69.00
2017-10-21T00:31:44.518Z,68.10
2017-10-21T00:34:12.120Z,68.10
2017-10-21T00:36:39.721Z,68.80
2017-10-21T00:39:07.285Z,68.90
2017-10-21T00:41:34.890Z,69.10
2017-10-21T00:44:02.473Z,69.30
2017-10-21T00:46:30.818Z,69.40
2017-10-21T00:48:58.391Z,69.40
2017-10-21T00:51:25.953Z,69.10
2017-10-21T00:53:53.495Z,68.80
2017-10-21T00:56:21.101Z,68.90
2017-10-21T00:58:49.460Z,70.10
2017-10-21T01:01:19.450Z,70.00
2017-10-21T01:03:47.075Z,69.90
2017-10-21T01:06:14.666Z,70.00
2017-10-21T01:08:42.212Z,70.00
2017-10-21T01:11:09.799Z,70.30
2017-10-21T01:13:37.356Z,69.70
2017-10-21T01:16:04.900Z,69.20
2017-10-21T01:18:32.519Z,69.10
2017-10-21T01:21:00.126Z,69.90
2017-10-21T01:23:27.722Z,69.40
2017-10-21T01:25:56.124Z,70.00
2017-10-21T01:28:23.720Z,69.90
2017-10-21T01:30:51.304Z,70.10
2017-10-21T01:33:18.913Z,70.30
2017-10-21T01:35:46.489Z,70.40
2017-10-21T01:38:14.073Z,70.70
2017-10-21T01:40:41.689Z,70.60
2017-10-21T01:43:09.283Z,71.10
2017-10-21T01:45:36.877Z,70.80
2017-10-21T01:48:04.507Z,71.20
2017-10-21T01:50:32.088Z,71.20
2017-10-21T01:52:59.693Z,71.40
2017-10-21T01:55:27.332Z,71.30
2017-10-21T01:57:55.676Z,71.50
2017-10-21T02:00:23.273Z,71.50
2017-10-21T02:02:51.643Z,71.90
2017-10-21T02:05:19.245Z,71.80
2017-10-21T02:07:46.851Z,71.80
2017-10-21T02:10:14.440Z,71.70
2017-10-21T02:12:42.027Z,72.20
2017-10-21T02:15:09.621Z,72.10
2017-10-21T02:17:37.255Z,72.00
2017-10-21T02:20:04.853Z,72.10
2017-10-21T02:22:32.457Z,71.90
2017-10-21T02:25:00.070Z,71.80
2017-10-21T02:27:27.653Z,71.80
2017-10-21T02:29:56.002Z,71.90
2017-10-21T02:32:23.623Z,71.90
2017-10-21T02:34:51.232Z,71.70
2017-10-21T02:37:18.783Z,71.50
2017-10-21T02:39:46.415Z,71.50
2017-10-21T02:42:13.988Z,72.00
2017-10-21T02:44:41.552Z,72.00
2017-10-21T02:47:09.167Z,72.10
2017-10-21T02:49:36.725Z,72.40
2017-10-21T02:52:04.302Z,72.10
2017-10-21T02:54:31.933Z,71.60
2017-10-21T02:57:00.280Z,70.10
2017-10-21T02:59:27.837Z,70.10
2017-10-21T03:01:55.482Z,70.20
2017-10-21T03:04:23.045Z,71.00
2017-10-21T03:06:50.609Z,71.00
2017-10-21T03:09:18.216Z,70.70
2017-10-21T03:11:46.553Z,71.30
2017-10-21T03:14:14.134Z,71.30
2017-10-21T03:16:41.752Z,71.60
2017-10-21T03:19:09.362Z,71.20
2017-10-21T03:21:37.685Z,71.60
2017-10-21T03:24:05.309Z,71.60
2017-10-21T03:26:33.635Z,72.00
2017-10-21T03:29:01.222Z,72.00
2017-10-21T03:31:28.831Z,71.80
2017-10-21T03:33:56.379Z,71.70
2017-10-21T03:36:24.695Z,71.60
2017-10-21T03:38:52.317Z,72.10
2017-10-21T03:41:19.881Z,72.10
2017-10-21T03:43:47.456Z,72.10
2017-10-21T03:46:15.041Z,71.50
2017-10-21T03:48:42.604Z,72.00
2017-10-21T03:51:10.152Z,72.10
2017-10-21T03:53:37.724Z,72.30
2017-10-21T03:56:05.280Z,72.30
2017-10-21T03:58:32.847Z,72.20
2017-10-21T04:01:00.440Z,72.40
2017-10-21T04:03:28.765Z,72.20
2017-10-21T04:05:56.335Z,72.20
2017-10-21T04:08:23.927Z,72.60
2017-10-21T04:10:52.285Z,73.20
2017-10-21T04:13:19.849Z,73.20
2017-10-21T04:15:47.440Z,73.00
2017-10-21T04:18:15.787Z,73.20
2017-10-21T04:20:43.350Z,73.20
2017-10-21T04:23:10.938Z,73.40
2017-10-21T04:25:39.300Z,73.40
2017-10-21T04:28:07.645Z,73.40
2017-10-21T04:30:35.258Z,73.40
2017-10-21T04:33:03.590Z,73.00
2017-10-21T04:35:31.927Z,73.50
2017-10-21T04:37:59.518Z,73.40
2017-10-21T04:40:27.074Z,73.70
2017-10-21T04:42:54.628Z,73.30
2017-10-21T04:45:22.230Z,73.50
2017-10-21T04:47:49.782Z,73.50
2017-10-21T04:50:17.355Z,73.20
2017-10-21T04:52:45.729Z,73.70
2017-10-21T04:55:13.337Z,73.60
2017-10-21T04:57:40.883Z,73.60
2017-10-21T05:00:08.498Z,73.70
2017-10-21T05:02:36.060Z,73.80
2017-10-21T05:05:03.638Z,73.90
2017-10-21T05:07:31.994Z,73.70
2017-10-21T05:09:59.574Z,73.70
2017-10-21T05:12:27.900Z,73.80
2017-10-21T05:14:55.539Z,73.80
2017-10-21T05:17:23.177Z,74.00
2017-10-21T05:19:51.521Z,74.40
2017-10-21T05:22:19.123Z,74.40
2017-10-21T05:24:47.460Z,75.00
2017-10-21T05:27:15.037Z,75.00
2017-10-21T05:29:42.612Z,74.40
2017-10-21T05:32:10.181Z,74.10
2017-10-21T05:34:38.511Z,73.10
2017-10-21T05:37:06.107Z,73.10
2017-10-21T05:39:34.425Z,74.20
2017-10-21T05:42:01.986Z,74.20
2017-10-21T05:44:29.604Z,74.50
2017-10-21T05:46:57.930Z,74.20
2017-10-21T05:49:25.486Z,74.20
2017-10-21T05:51:53.070Z,74.20
2017-10-21T05:54:20.640Z,74.10
2017-10-21T05:56:48.212Z,73.30
2017-10-21T05:59:16.573Z,74.40
2017-10-21T06:01:44.139Z,74.40
2017-10-21T06:04:11.719Z,74.30
2017-10-21T06:06:40.090Z,74.50
2017-10-21T06:09:07.630Z,74.50
2017-10-21T06:11:35.245Z,74.90
2017-10-21T06:14:02.849Z,74.10
2017-10-21T06:16:30.421Z,74.70
2017-10-21T06:18:58.773Z,76.00
2017-10-21T06:21:26.394Z,75.60
2017-10-21T06:23:53.948Z,75.80
2017-10-21T06:26:22.276Z,75.90
2017-10-21T06:28:56.377Z,75.90
2017-10-21T06:31:24.057Z,76.00
2017-10-21T06:33:51.641Z,76.20
2017-10-21T06:36:19.256Z,76.60
2017-10-21T06:38:47.038Z,76.10
2017-10-21T06:41:16.337Z,76.30
2017-10-21T06:43:44.707Z,76.20
2017-10-21T06:46:12.268Z,76.30
2017-10-21T06:48:39.876Z,76.90
2017-10-21T06:51:08.200Z,77.10
2017-10-21T06:53:35.760Z,77.00
2017-10-21T06:56:03.340Z,77.50
2017-10-21T06:58:30.903Z,77.60
2017-10-21T07:00:59.991Z,77.50
2017-10-21T07:03:27.575Z,77.50
2017-10-21T07:05:55.142Z,77.40
2017-10-21T07:08:23.499Z,77.40
2017-10-21T07:10:51.085Z,77.40
2017-10-21T07:13:19.419Z,77.90
2017-10-21T07:15:47.071Z,77.90
2017-10-21T07:18:14.648Z,77.80
2017-10-21T07:20:42.211Z,78.00
2017-10-21T07:23:09.769Z,78.20
2017-10-21T07:25:37.726Z,78.30
2017-10-21T07:28:05.313Z,77.90
2017-10-21T07:30:32.877Z,77.80
2017-10-21T07:33:00.476Z,77.70
2017-10-21T07:35:28.777Z,78.10
2017-10-21T07:37:56.333Z,78.30
2017-10-21T07:40:23.932Z,78.20
2017-10-21T07:42:51.506Z,78.10
2017-10-21T07:45:19.831Z,78.00
2017-10-21T07:47:47.413Z,77.90
2017-10-21T07:50:15.577Z,77.60
2017-10-21T07:52:43.129Z,77.60
2017-10-21T07:55:10.729Z,77.70
2017-10-21T07:57:38.283Z,77.90
2017-10-21T08:00:05.856Z,78.40
2017-10-21T08:02:34.230Z,76.70
2017-10-21T08:05:02.560Z,77.60
2017-10-21T08:07:30.119Z,77.00
2017-10-21T08:09:57.764Z,77.20
2017-10-21T08:12:25.323Z,77.20
2017-10-21T08:14:52.873Z,77.30
2017-10-21T08:17:20.474Z,77.90
2017-10-21T08:19:48.054Z,78.20
2017-10-21T08:22:15.609Z,77.80
2017-10-21T08:24:43.211Z,77.60
2017-10-21T08:27:10.787Z,78.20
2017-10-21T08:29:38.426Z,77.30
2017-10-21T08:32:06.025Z,77.00
2017-10-21T08:34:35.646Z,77.80
2017-10-21T08:37:03.210Z,77.40
2017-10-21T08:39:30.802Z,77.00
2017-10-21T08:41:59.148Z,77.40
2017-10-21T08:44:26.714Z,77.40
2017-10-21T08:46:54.295Z,77.70
2017-10-21T08:49:22.622Z,77.90
2017-10-21T08:51:50.168Z,78.00
2017-10-21T08:54:17.777Z,78.30
2017-10-21T08:56:45.353Z,78.30
2017-10-21T08:59:13.672Z,78.50
2017-10-21T09:01:41.270Z,78.50
2017-10-21T09:04:08.843Z,78.10
2017-10-21T09:06:36.402Z,77.80
2017-10-21T09:09:04.021Z,78.20
2017-10-21T09:11:31.588Z,77.70
2017-10-21T09:13:59.166Z,77.10
2017-10-21T09:16:26.768Z,77.20
2017-10-21T09:18:55.099Z,77.20
2017-10-21T09:21:22.658Z,77.20
2017-10-21T09:23:50.245Z,76.80
2017-10-21T09:26:18.568Z,76.50
2017-10-21T09:28:46.111Z,76.40
2017-10-21T09:31:13.706Z,77.30
2017-10-21T09:33:41.275Z,76.90
2017-10-21T09:36:08.846Z,76.80
2017-10-21T09:38:36.437Z,77.30
2017-10-21T09:41:04.768Z,78.10
2017-10-21T09:43:32.338Z,78.10
2017-10-21T09:45:59.945Z,79.40
2017-10-21T09:48:27.517Z,80.60
2017-10-21T09:50:55.103Z,79.20
2017-10-21T09:53:22.719Z,78.00
2017-10-21T09:55:51.037Z,73.80
2017-10-21T09:58:18.593Z,73.80
2017-10-21T10:00:46.176Z,74.50
2017-10-21T10:03:13.739Z,75.10
2017-10-21T10:05:41.287Z,73.40
2017-10-21T10:08:08.888Z,74.50
2017-10-21T10:10:37.207Z,70.00
2017-10-21T10:13:04.757Z,70.00
2017-10-21T10:15:32.349Z,69.00
2017-10-21T10:17:59.912Z,69.40
2017-10-21T10:20:27.480Z,69.50
2017-10-21T10:22:55.074Z,65.50
2017-10-21T10:25:23.394Z,61.90
2017-10-21T10:27:50.976Z,61.80
2017-10-21T10:30:18.588Z,61.60
2017-10-21T10:32:46.136Z,62.40
2017-10-21T10:35:13.700Z,62.40
2017-10-21T10:37:41.515Z,63.40
2017-10-21T10:40:09.097Z,64.80
2017-10-21T10:42:37.427Z,65.40
2017-10-21T10:45:05.017Z,65.40
2017-10-21T10:47:32.602Z,63.10
2017-10-21T10:50:00.967Z,60.00
2017-10-21T10:52:29.335Z,60.20
2017-10-21T10:54:56.891Z,59.60
2017-10-21T10:57:24.485Z,59.70
2017-10-21T10:59:52.859Z,57.80
2017-10-21T11:02:21.182Z,60.60
2017-10-21T11:04:48.738Z,60.60
2017-10-21T11:07:16.354Z,59.60
2017-10-21T11:09:44.676Z,61.70
2017-10-21T11:12:13.889Z,61.90
2017-10-21T11:14:41.481Z,61.90
2017-10-21T11:17:09.877Z,60.50
2017-10-21T11:19:38.206Z,61.50
2017-10-21T11:22:05.790Z,61.40
2017-10-21T11:24:33.347Z,62.80
2017-10-21T11:27:00.900Z,61.40
2017-10-21T11:29:28.499Z,60.90
2017-10-21T11:31:56.836Z,59.70
2017-10-21T11:34:24.394Z,59.70
2017-10-21T11:36:51.985Z,61.10
2017-10-21T11:39:20.337Z,60.40
2017-10-21T11:41:47.901Z,60.40
2017-10-21T11:44:16.264Z,59.60
2017-10-21T11:46:43.854Z,59.60
2017-10-21T11:49:12.163Z,61.20
2017-10-21T11:51:39.761Z,61.20
2017-10-21T11:54:07.321Z,60.40
2017-10-21T11:56:34.902Z,58.90
2017-10-21T11:59:02.480Z,57.70
2017-10-21T12:01:30.818Z,57.40
2017-10-21T12:03:58.382Z,57.30
2017-10-21T12:06:25.980Z,57.50
2017-10-21T12:08:54.294Z,57.50
2017-10-21T12:11:21.841Z,57.50
2017-10-21T12:13:49.424Z,58.10
2017-10-21T12:16:16.988Z,58.20
2017-10-21T12:18:44.555Z,58.00
2017-10-21T12:21:12.156Z,56.90
2017-10-21T12:23:40.495Z,57.00
2017-10-21T12:26:08.077Z,56.90
2017-10-21T12:28:36.423Z,55.70
2017-10-21T12:31:03.987Z,55.60
2017-10-21T12:33:31.544Z,54.20
2017-10-21T12:35:59.129Z,55.00
2017-10-21T12:38:26.693Z,53.90
2017-10-21T12:40:54.245Z,55.40
2017-10-21T12:43:22.617Z,54.20
2017-10-21T12:45:50.185Z,54.10
2017-10-21T12:48:17.726Z,53.60
2017-10-21T12:50:45.347Z,54.60
2017-10-21T12:53:12.917Z,54.40
2017-10-21T12:55:40.471Z,54.50
2017-10-21T12:58:08.061Z,54.60
2017-10-21T13:00:35.604Z,54.20
2017-10-21T13:03:03.175Z,55.10
2017-10-21T13:05:30.794Z,54.80
2017-10-21T13:07:58.345Z,54.60
2017-10-21T13:10:26.683Z,55.00
2017-10-21T13:12:54.293Z,55.00
2017-10-21T13:15:21.849Z,55.90
2017-10-21T13:17:49.405Z,55.60
2017-10-21T13:20:17.767Z,55.20
2017-10-21T13:22:46.097Z,54.70
2017-10-21T13:25:13.649Z,54.60
2017-10-21T13:27:41.263Z,54.70
2017-10-21T13:30:09.608Z,52.80
2017-10-21T13:32:37.163Z,52.70
2017-10-21T13:35:04.741Z,52.80
2017-10-21T13:37:32.329Z,53.00
2017-10-21T13:40:00.661Z,52.80
2017-10-21T13:42:28.240Z,52.80
2017-10-21T13:44:55.802Z,52.10
2017-10-21T13:47:23.367Z,53.00
2017-10-21T13:49:50.974Z,52.70
2017-10-21T13:52:18.523Z,53.00
2017-10-21T13:54:46.068Z,51.30
2017-10-21T13:57:14.403Z,49.90
2017-10-21T13:59:41.962Z,49.90
2017-10-21T14:02:09.531Z,49.80
2017-10-21T14:04:37.136Z,49.50
2017-10-21T14:07:04.685Z,50.40
2017-10-21T14:09:33.018Z,50.20
2017-10-21T14:12:00.605Z,50.20
2017-10-21T14:14:28.195Z,50.10
2017-10-21T14:16:55.748Z,51.00
2017-10-21T14:19:24.117Z,50.90
2017-10-21T14:21:52.442Z,50.80
2017-10-21T14:24:20.001Z,50.70
2017-10-21T14:26:47.612Z,51.00
2017-10-21T14:29:15.949Z,50.60
2017-10-21T14:31:43.505Z,50.60
2017-10-21T14:34:11.093Z,52.10
2017-10-21T14:36:38.635Z,52.10
2017-10-21T14:39:06.196Z,52.50
2017-10-21T14:41:33.780Z,52.10
2017-10-21T14:44:01.347Z,53.20
2017-10-21T14:46:29.656Z,55.40
2017-10-21T14:48:57.290Z,55.40
2017-10-21T14:51:25.632Z,56.50
2017-10-21T14:53:53.225Z,57.20
2017-10-21T14:56:21.591Z,56.60
2017-10-21T14:58:49.935Z,57.30
2017-10-21T15:01:17.499Z,57.30
2017-10-21T15:03:45.093Z,58.40
2017-10-21T15:06:13.453Z,58.50
2017-10-21T15:08:41.035Z,58.40
2017-10-21T15:11:09.409Z,58.10
2017-10-21T15:13:36.972Z,58.00
2017-10-21T15:16:05.282Z,58.90
2017-10-21T15:18:32.874Z,58.80
2017-10-21T15:21:00.425Z,58.50
2017-10-21T15:23:27.989Z,59.50
2017-10-21T15:25:55.555Z,59.60
2017-10-21T15:28:23.100Z,60.30
2017-10-21T15:30:50.660Z,59.80
2017-10-21T15:33:19.541Z,61.40
2017-10-21T15:35:47.209Z,61.10
2017-10-21T15:38:14.753Z,60.30
2017-10-21T15:40:42.337Z,60.70
2017-10-21T15:43:09.890Z,62.20
2017-10-21T15:45:37.551Z,62.90
2017-10-21T15:48:05.658Z,62.10
2017-10-21T15:50:33.289Z,62.20
2017-10-21T15:53:00.844Z,62.50
2017-10-21T15:55:28.429Z,61.70
2017-10-21T15:57:55.982Z,63.10
2017-10-21T16:00:23.561Z,63.70
2017-10-21T16:02:51.155Z,63.90
2017-10-21T16:05:18.745Z,64.50
2017-10-21T16:07:46.336Z,64.90
2017-10-21T16:10:13.899Z,65.20
2017-10-21T16:12:41.474Z,65.50
2017-10-21T16:15:09.064Z,65.80
2017-10-21T16:17:36.614Z,66.30
2017-10-21T16:20:04.159Z,66.20
2017-10-21T16:22:32.547Z,66.50
2017-10-21T16:25:00.866Z,66.50
2017-10-21T16:27:28.426Z,66.50
2017-10-21T16:29:56.080Z,66.80
2017-10-21T16:32:23.622Z,67.00
2017-10-21T16:34:51.164Z,66.90
2017-10-21T16:37:19.510Z,66.90
2017-10-21T16:39:47.061Z,66.90
2017-10-21T16:42:14.634Z,67.00
2017-10-21T16:44:42.241Z,67.20
2017-10-21T16:47:09.813Z,68.20
2017-10-21T16:49:37.370Z,67.80
2017-10-21T16:52:04.973Z,67.50
2017-10-21T16:54:32.533Z,67.90
2017-10-21T16:57:00.864Z,68.80
2017-10-21T16:59:28.455Z,68.80
2017-10-21T17:01:56.012Z,68.80
2017-10-21T17:04:23.571Z,68.40
2017-10-21T17:06:51.160Z,68.50
2017-10-21T17:09:19.472Z,69.40
2017-10-21T17:11:47.034Z,69.40
2017-10-21T17:14:14.626Z,69.30
2017-10-21T17:16:42.191Z,69.20
2017-10-21T17:19:09.743Z,69.90
2017-10-21T17:21:37.332Z,69.90
2017-10-21T17:24:05.644Z,69.60
2017-10-21T17:26:33.212Z,69.60
2017-10-21T17:29:00.828Z,69.40
2017-10-21T17:31:29.140Z,69.70
2017-10-21T17:33:56.743Z,69.70
2017-10-21T17:36:24.325Z,69.60
2017-10-21T17:38:51.863Z,69.80
2017-10-21T17:41:20.356Z,69.90
2017-10-21T17:43:47.959Z,70.10
2017-10-21T17:46:15.537Z,70.30
2017-10-21T17:48:43.089Z,70.80
2017-10-21T17:51:10.722Z,71.10
2017-10-21T17:53:38.313Z,71.00
2017-10-21T17:56:05.876Z,70.70
2017-10-21T17:58:33.476Z,70.40
2017-10-21T18:01:01.080Z,70.70
2017-10-21T18:03:28.651Z,70.60
2017-10-21T18:05:56.245Z,71.20
2017-10-21T18:08:23.801Z,71.00
2017-10-21T18:10:51.368Z,70.60
2017-10-21T18:13:18.983Z,70.20
2017-10-21T18:15:46.546Z,69.60
2017-10-21T18:18:14.091Z,69.30
2017-10-21T18:20:41.703Z,68.90
2017-10-21T18:23:09.843Z,68.40
2017-10-21T18:25:37.450Z,67.70
2017-10-21T18:28:05.057Z,67.20
2017-10-21T18:30:32.633Z,66.70
2017-10-21T18:33:00.194Z,67.90
2017-10-21T18:35:27.784Z,67.90
2017-10-21T18:37:55.352Z,68.20
2017-10-21T18:40:22.906Z,68.20
2017-10-21T18:42:50.486Z,68.10
2017-10-21T18:45:18.899Z,68.60
2017-10-21T18:47:46.497Z,68.60
2017-10-21T18:50:14.097Z,68.90
2017-10-21T18:52:42.425Z,68.90
2017-10-21T18:55:09.993Z,68.80
2017-10-21T18:57:37.615Z,69.00
2017-10-21T19:00:05.159Z,68.70
2017-10-21T19:02:32.742Z,68.80
2017-10-21T19:05:00.340Z,68.60
2017-10-21T19:07:27.893Z,68.00
2017-10-21T19:09:55.481Z,68.20
2017-10-21T19:12:23.846Z,68.20
2017-10-21T19:14:51.427Z,68.10
2017-10-21T19:17:19.747Z,68.00
2017-10-21T19:19:47.353Z,67.40
2017-10-21T19:22:14.958Z,68.50
2017-10-21T19:24:42.512Z,68.60
2017-10-21T19:27:10.122Z,69.00
2017-10-21T19:29:37.705Z,69.50
2017-10-21T19:32:06.032Z,70.10
2017-10-21T19:34:33.632Z,70.10
2017-10-21T19:37:01.990Z,70.80
2017-10-21T19:39:29.567Z,70.70
2017-10-21T19:41:57.161Z,71.00
2017-10-21T19:44:24.728Z,71.60
2017-10-21T19:46:52.295Z,71.90
2017-10-21T19:49:19.900Z,71.90
2017-10-21T19:51:47.491Z,72.10
2017-10-21T19:54:15.045Z,72.10
2017-10-21T19:56:43.397Z,72.50
2017-10-21T19:59:10.951Z,72.50
2017-10-21T20:01:38.501Z,72.60
2017-10-21T20:04:06.102Z,72.70
2017-10-21T20:06:34.467Z,73.20
2017-10-21T20:09:02.862Z,73.40
2017-10-21T20:11:31.238Z,73.00
2017-10-21T20:13:59.548Z,72.70
2017-10-21T20:16:27.105Z,72.70
2017-10-21T20:18:54.709Z,72.90
2017-10-21T20:21:22.260Z,73.30
2017-10-21T20:23:50.619Z,73.10
2017-10-21T20:26:18.213Z,73.00
2017-10-21T20:28:45.775Z,73.30
2017-10-21T20:31:13.347Z,73.80
2017-10-21T20:33:41.727Z,73.30
2017-10-21T20:36:10.067Z,73.10
2017-10-21T20:38:37.649Z,73.10
2017-10-21T20:41:05.248Z,73.00
2017-10-21T20:43:32.812Z,72.70
2017-10-21T20:46:00.390Z,72.70
2017-10-21T20:48:28.015Z,72.80
2017-10-21T20:50:55.604Z,73.00
2017-10-21T20:53:23.295Z,72.70
2017-10-21T20:55:50.885Z,72.90
2017-10-21T20:58:19.226Z,73.10
2017-10-21T21:00:46.800Z,73.10
2017-10-21T21:03:14.399Z,73.30
2017-10-21T21:05:41.944Z,73.30
2017-10-21T21:08:09.534Z,73.50
2017-10-21T21:10:37.153Z,73.80
2017-10-21T21:13:04.739Z,73.60
2017-10-21T21:15:32.331Z,73.80
2017-10-21T21:18:00.731Z,74.40
2017-10-21T21:20:28.299Z,74.20
2017-10-21T21:22:55.862Z,74.20
2017-10-21T21:25:23.460Z,74.20
2017-10-21T21:27:51.008Z,74.40
2017-10-21T21:30:19.355Z,74.60
2017-10-21T21:32:46.970Z,74.60
2017-10-21T21:35:14.543Z,74.60
2017-10-21T21:37:42.096Z,74.50
2017-10-21T21:40:09.716Z,74.60
2017-10-21T21:42:38.046Z,74.00
2017-10-21T21:45:05.606Z,74.00
2017-10-21T21:47:33.209Z,73.80
2017-10-21T21:50:01.530Z,73.60
2017-10-21T21:52:29.084Z,73.60
2017-10-21T21:54:56.685Z,73.80
2017-10-21T21:57:24.251Z,73.80
2017-10-21T21:59:51.799Z,73.50
2017-10-21T22:02:19.412Z,73.30
2017-10-21T22:04:46.984Z,72.90
2017-10-21T22:07:14.553Z,72.50
2017-10-21T22:09:42.162Z,71.30
2017-10-21T22:12:09.714Z,70.30
2017-10-21T22:14:37.273Z,70.30
2017-10-21T22:17:04.862Z,68.60
2017-10-21T22:19:33.182Z,67.90
2017-10-21T22:22:00.768Z,67.90
2017-10-21T22:24:28.358Z,67.90
2017-10-21T22:26:55.917Z,68.20
2017-10-21T22:29:24.243Z,67.10
2017-10-21T22:31:51.837Z,67.10
2017-10-21T22:34:19.409Z,66.70
2017-10-21T22:36:47.003Z,66.70
2017-10-21T22:39:14.593Z,67.10
2017-10-21T22:41:42.159Z,67.90
2017-10-21T22:44:09.740Z,68.80
2017-10-21T22:46:38.105Z,69.60
2017-10-21T22:49:05.668Z,69.60
2017-10-21T22:51:33.255Z,69.90
2017-10-21T22:54:01.630Z,70.30
2017-10-21T22:56:29.981Z,71.40
2017-10-21T22:58:57.542Z,71.40
2017-10-21T23:01:25.140Z,71.90
2017-10-21T23:03:52.710Z,72.50
2017-10-21T23:06:20.305Z,72.80
2017-10-21T23:08:47.913Z,73.40
2017-10-21T23:11:15.481Z,73.40
2017-10-21T23:13:43.037Z,74.00
2017-10-21T23:16:10.632Z,75.40
2017-10-21T23:18:38.180Z,74.80
2017-10-21T23:21:05.754Z,73.80
2017-10-21T23:23:33.345Z,74.40
2017-10-21T23:26:00.901Z,74.70
2017-10-21T23:28:29.237Z,74.40
2017-10-21T23:30:56.837Z,74.40
2017-10-21T23:33:24.384Z,74.90
2017-10-21T23:35:52.710Z,75.60
2017-10-21T23:38:20.305Z,75.60
2017-10-21T23:40:47.893Z,75.20
2017-10-21T23:43:15.469Z,76.10
2017-10-21T23:45:43.818Z,76.10
2017-10-21T23:48:11.440Z,75.50
2017-10-21T23:50:38.997Z,75.70
2017-10-21T23:53:06.587Z,76.00
2017-10-21T23:55:34.145Z,76.40
2017-10-21T23:58:01.710Z,76.30
